Wild Boar Gully, Santa Catalina Island Weather observations

Data are for 10 minute period ending at time listed.
 Day   Time   Solar   Ave.   Ave.  Ave.  Vector    Max.   Stn.    Total
  of    of     Rad.   Air    Rel.  Wind   Wind     Wind   Baro.  Precip.
Year   Day            Temp.  Hum.  Speed  Dir.     Gust   Pres.         
2015   (PST)   W/m2    F      %     mph   deg.      mph    mb.     in.  
------------------------------------------------------------------------
 146    0:20    0.0    58   87.4     4     32.1     6.0    999.0   0.00  
 146    0:30    0.0    58   87.5     4     15.1     5.4    999.0   0.00  
 146    0:40    0.0    58   87.8     3    350.8     5.4    999.0   0.00  
 146    0:50    0.0    58   87.8     2    320.5     3.6    999.0   0.00  
 146    1:00    0.0    58   87.7     2    275.6     3.6    999.0   0.00  
 146    1:10    0.0    58   87.9     2    248.2     3.0    999.0   0.00  
 146    1:20    0.0    58   88.0     2    287.6     4.2    999.0   0.00  
 146    1:30    0.0    58   87.9     3    267.9     4.8    999.0   0.00  
 146    1:40    0.0    58   88.0     5    239.8     7.2    999.0   0.00  
 146    1:50    0.0    58   88.2     3    272.9     5.4    999.0   0.00  
 146    2:00    0.0    57   88.3     5    280.6     7.8    999.0   0.00  
 146    2:10    0.0    57   88.5     4    300.1     7.8    999.0   0.00  
 146    2:20    0.0    57   88.6     2    291.1     4.2    999.0   0.00  
 146    2:30    0.0    57   88.6     2    120.5     5.4    999.0   0.00  
 146    2:40    0.0    57   88.9     3    143.0     4.2    999.0   0.00  
 146    2:50    0.0    57   88.8     2    204.0     4.2    999.0   0.00  
 146    3:00    0.0    57   88.7     3    144.9     4.8    999.0   0.00  
 146    3:10    0.0    57   88.9     2    144.6     2.4    999.0   0.00  
 146    3:20    0.0    57   89.1     2    198.8     4.2    999.0   0.00  
 146    3:30    0.0    58   90.6     3    241.4     4.2    999.0   0.00  
 146    3:40    0.0    57   92.5     3    240.8     4.2    999.0   0.00  
 146    3:50    0.0    57   93.6     2    232.8     3.6    999.0   0.00  
 146    4:00    0.0    57   94.4     4    253.4     6.0    999.0   0.00  
 146    4:10    0.0    57   94.6     4    289.1     6.0    999.0   0.00  
 146    4:20    0.0    57   94.2     4    295.4     6.0    999.0   0.00  
 146    4:30    0.0    57   94.6     5    274.3     9.0    999.0   0.00  
 146    4:40    0.0    57   95.2     5    279.2     7.8    999.0   0.00  
 146    4:50    0.0    57   95.7     5    282.3     7.8    999.0   0.00  
 146    5:00    0.0    56   96.0     6    288.0     8.4    999.0   0.00  
 146    5:10    0.0    56   96.4     6    283.1     8.4    999.0   0.00  
 146    5:20    3.0    56   96.6     5    284.0     7.8    999.0   0.00  
 146    5:30    3.0    56   96.7     5    267.0     8.4    999.0   0.00  
 146    5:40    7.0    56   96.9     6    274.0     7.8    999.0   0.00  
 146    5:50    9.0    56   97.0     5    276.6     7.2    999.0   0.00  
 146    6:00    7.0    56   97.1     6    279.9     8.4    999.0   0.00  
 146    6:10   10.0    56   97.2     6    280.9     9.0    999.0   0.00  
 146    6:20   10.0    56   97.3     6    271.5     9.6    999.0   0.00  
 146    6:30   12.0    56   97.4     5    285.7     9.0    999.0   0.00  
 146    6:40   15.0    56   97.5     5    264.4     7.2    999.0   0.00  
 146    6:50   22.0    56   97.6     6    257.0    11.3    999.0   0.01  
 146    7:00   31.0    56   97.7     3    273.8     7.2    999.0   0.00  
 146    7:10   39.0    56   97.6     4    268.9     8.4    999.0   0.00  
 146    7:20   46.0    56   97.7     5    275.9     7.2    999.0   0.00  
 146    7:30   49.0    56   97.6     7    281.7     9.0    999.0   0.00  
 146    7:40   50.0    56   97.7     8    272.5    10.2    999.0   0.00  
 146    7:50   64.0    56   97.7     7    275.9     9.6    999.0   0.00  
 146    8:00   56.0    56   97.8     7    271.2     9.6    999.0   0.00  
 146    8:10   57.0    56   97.8     7    278.8     9.0    999.0   0.00  
 146    8:20   73.0    56   97.8     7    274.6    10.2    999.0   0.00  
 146    8:30  110.0    56   97.8     8    273.1    11.9    999.0   0.00  
 146    8:40   99.0    56   97.8     8    277.9    11.3    999.0   0.00  
 146    8:50   96.0    56   97.8     6    269.3    10.2    999.0   0.00  
 146    9:00  180.0    56   97.7     8    275.3    10.8    999.0   0.00  
 146    9:10  233.0    56   97.7    10    274.9    11.3    999.0   0.00  
 146    9:20  303.0    57   97.5     9    292.1    12.5    999.0   0.00  
 146    9:30  288.0    57   97.3    10    288.9    13.7    999.0   0.00  
 146    9:40  349.0    57   96.9    10    292.1    12.5    999.0   0.00  
 146    9:50  304.0    57   96.2    10    299.3    13.1    999.0   0.00  
 146   10:00  300.0    57   95.6     9    289.3    13.1    999.0   0.00  
 146   10:10  237.0    58   94.8    10    273.1    14.3    999.0   0.00  
 146   10:20  245.0    58   94.3     9    278.3    13.1    999.0   0.00  
 146   10:30  229.0    58   93.5     9    281.9    12.5    999.0   0.00  
 146   10:40  321.0    58   92.4    10    284.3    14.3    999.0   0.00  
 146   10:50  243.0    58   91.6    10    275.7    13.7    999.0   0.00  
 146   11:00  218.0    58   91.3     8    289.3    10.8    999.0   0.00  
 146   11:10  212.0    58   90.3     8    280.2    12.5    999.0   0.00  
 146   11:20  216.0    58   90.4     9    279.7    12.5    999.0   0.00  
 146   11:30  205.0    58   90.6     9    275.3    13.7    999.0   0.00  
 146   11:40  181.0    58   90.7     9    274.8    12.5    999.0   0.00  
 146   11:50  185.0    58   91.3     8    276.1    11.9    999.0   0.00  
 146   12:00  185.0    58   90.7     8    281.8    12.5    999.0   0.00  
 146   12:10  151.0    58   91.7     9    271.3    13.7    999.0   0.00  
 146   12:20  178.0    58   92.1    10    272.7    14.3    999.0   0.00  
 146   12:30  159.0    58   91.8    10    272.4    15.5    999.0   0.00  
 146   12:40  137.0    57   92.7    10    268.5    14.9    999.0   0.00  
 146   12:50  169.0    57   92.9     9    278.9    14.3    999.0   0.00  
 146   13:00  226.0    58   91.7    10    278.2    13.1    999.0   0.00  
 146   13:10  206.0    58   91.2    10    272.5    16.1    999.0   0.00  
 146   13:20  159.0    57   92.3    10    274.7    14.9    999.0   0.00  
 146   13:30  151.0    57   92.1    10    275.7    16.1    999.0   0.00  
 146   13:40  169.0    57   91.7     9    277.5    13.7    999.0   0.00  
 146   13:50  166.0    57   91.3    10    266.1    15.5    999.0   0.00  
 146   14:00  206.0    58   90.5    10    268.1    15.5    999.0   0.00  
 146   14:10  217.0    58   89.9    10    275.1    15.5    999.0   0.00  
 146   14:20  187.0    58   90.6    10    274.0    16.1    999.0   0.00  
 146   14:30  147.0    58   90.9    10    269.5    16.1    999.0   0.00  
 146   14:40  161.0    58   91.1    11    263.8    16.7    999.0   0.00  
 146   14:50  160.0    58   91.1    10    272.8    16.1    999.0   0.00  
 146   15:00  120.0    58   91.5    10    268.8    15.5    999.0   0.00  
 146   15:10  116.0    58   91.4    10    271.4    16.1    999.0   0.00  
 146   15:20   98.0    57   91.5    11    262.9    16.7    999.0   0.00  
 146   15:30  115.0    58   91.4    10    263.5    15.5    999.0   0.00  
 146   15:40  134.0    58   91.4    11    266.2    16.1    999.0   0.00  
 146   15:50  108.0    58   91.3    10    272.1    14.9    999.0   0.00  
 146   16:00   98.0    58   91.3    10    283.9    14.3    999.0   0.00  
 146   16:10  111.0    57   90.8    12    278.0    15.5    999.0   0.00  
 146   16:20  129.0    57   90.3    11    281.4    14.3    999.0   0.00  
 146   16:30  111.0    58   89.5    10    262.2    14.3    999.0   0.00  
 146   16:40  125.0    58   88.7     9    268.9    13.7    999.0   0.00  
 146   16:50  123.0    58   87.9     9    260.9    14.3    999.0   0.00  
 146   17:00  123.0    58   87.4     9    277.8    15.5    999.0   0.00  
 146   17:10   95.0    58   87.9    10    263.6    14.3    999.0   0.00  
 146   17:20   62.0    58   87.9    11    259.7    16.1    999.0   0.00  
 146   17:30   83.0    58   87.8     9    270.1    14.3    999.0   0.00  
 146   17:40   87.0    58   88.4    10    269.8    16.1    999.0   0.00  
 146   17:50   68.0    58   88.9    11    274.2    16.1    999.0   0.00  
 146   18:00   41.0    57   88.9    12    283.0    16.1    999.0   0.00  
 146   18:10   33.0    57   89.8    12    279.3    15.5    999.0   0.00  
 146   18:20   26.0    57   89.4    12    273.5    17.3    999.0   0.00  
 146   18:30   12.0    57   90.0    10    283.3    16.7    999.0   0.00  
 146   18:40    5.0    56   90.3    12    275.8    17.3    999.0   0.00  
 146   18:50    2.0    56   90.4    10    278.6    14.9    999.0   0.00  
 146   19:00    0.0    56   90.2     9    284.8    13.7    999.0   0.00  
 146   19:10    0.0    56   90.8    10    294.2    16.1    999.0   0.00  
 146   19:20    0.0    56   90.9     7    308.1    12.5    999.0   0.00  
 146   19:30    0.0    56   91.0     7    301.8    11.9    999.0   0.00  
 146   19:40    0.0    56   91.2     6    314.6    10.2    999.0   0.00  
 146   19:50    0.0    56   91.6     6    300.8     8.4    999.0   0.00  
 146   20:00    0.0    56   91.9     5    299.6     7.2    999.0   0.00  
 146   20:10    0.0    55   92.2     4    297.1     6.0    999.0   0.00  
 146   20:20    0.0    55   92.5     2    356.1     4.2    999.0   0.00  
 146   20:30    0.0    55   92.7     2     48.8     3.6    999.0   0.00  
 146   20:40    0.0    55   93.0     1    331.4     2.4    999.0   0.00  
 146   20:50    0.0    55   92.9     1    132.3     1.8    999.0   0.00  
 146   21:00    0.0    55   92.6     2    288.8     3.0    999.0   0.00  
 146   21:10    0.0    55   92.5     1    186.4     3.0    999.0   0.00  
 146   21:20    0.0    56   91.9     1    277.3     2.4    999.0   0.00  
 146   21:30    0.0    56   91.8     2    285.2     3.0    999.0   0.00  
 146   21:40    0.0    56   92.1     2    263.7     3.6    999.0   0.00  
 146   21:50    0.0    56   92.1     2     16.3     4.2    999.0   0.00  
 146   22:00    0.0    56   92.0     2     19.4     4.2    999.0   0.00  
 146   22:10    0.0    56   91.9     2     42.7     4.2    999.0   0.00  
 146   22:20    0.0    56   91.8     2    320.1     3.6    999.0   0.00  
 146   22:30    0.0    56   91.9     2    258.7     3.0    999.0   0.00  
 146   22:40    0.0    56   91.8     2    233.9     3.6    999.0   0.00  
 146   22:50    0.0    56   91.8     2    237.7     4.2    999.0   0.00  
 146   23:00    0.0    56   91.8     4    254.9     6.0    999.0   0.00  
 146   23:10    0.0    56   91.8     4    279.4     6.0    999.0   0.00  
 146   23:20    0.0    56   91.8     4    308.1     6.0    999.0   0.00  
 146   23:30    0.0    56   91.8     3     12.0     4.2    999.0   0.00  
 146   23:40    0.0    56   91.7     3      4.7     4.8    999.0   0.00  
 146   23:50    0.0    56   91.7     2    349.0     4.2    999.0   0.00  
 147    0:00    0.0    56   91.6     2    278.6     5.4    999.0   0.00  
 147    0:10    0.0    56   91.3     3    295.0     5.4    999.0   0.00  

Return to Wild Boar Gully graphs page.


Western Regional Climate Center,wrcc@dri.edu